createdAt,value
2017-09-06T00:00:17.636Z,98382.75
2017-09-06T00:02:45.951Z,98380.50
2017-09-06T00:05:14.310Z,98378.42
2017-09-06T00:07:42.644Z,98376.64
2017-09-06T00:10:12.875Z,98381.88
2017-09-06T00:12:41.666Z,98378.89
2017-09-06T00:15:10.883Z,98383.83
2017-09-06T00:17:40.154Z,98375.18
2017-09-06T00:20:08.483Z,98379.16
2017-09-06T00:22:36.822Z,98376.86
2017-09-06T00:25:05.157Z,98368.97
2017-09-06T00:27:33.498Z,98374.48
2017-09-06T00:30:02.267Z,98371.39
2017-09-06T00:32:30.660Z,98372.14
2017-09-06T00:34:58.994Z,98373.38
2017-09-06T00:37:27.342Z,98371.89
2017-09-06T00:39:55.672Z,98370.47
2017-09-06T00:42:24.012Z,98373.01
2017-09-06T00:44:52.366Z,98371.69
2017-09-06T00:47:20.718Z,98366.28
2017-09-06T00:49:49.054Z,98373.48
2017-09-06T00:52:17.424Z,98370.61
2017-09-06T00:54:45.779Z,98367.41
2017-09-06T00:57:14.105Z,98373.27
2017-09-06T00:59:42.468Z,98357.05
2017-09-06T01:02:10.811Z,98364.72
2017-09-06T01:04:39.147Z,98360.48
2017-09-06T01:07:07.461Z,98354.64
2017-09-06T01:09:36.703Z,98355.03
2017-09-06T01:12:05.036Z,98357.48
2017-09-06T01:14:33.386Z,98356.11
2017-09-06T01:17:01.731Z,98353.93
2017-09-06T01:19:30.065Z,98361.80
2017-09-06T01:21:58.501Z,98355.80
2017-09-06T01:24:26.858Z,98347.50
2017-09-06T01:26:55.202Z,98356.52
2017-09-06T01:29:24.357Z,98357.78
2017-09-06T01:31:52.710Z,98350.87
2017-09-06T01:34:21.060Z,98353.36
2017-09-06T01:36:49.400Z,98353.30
2017-09-06T01:39:17.773Z,98346.36
2017-09-06T01:41:46.098Z,98346.84
2017-09-06T01:44:14.426Z,98344.62
2017-09-06T01:46:42.760Z,98342.38
2017-09-06T01:49:11.076Z,98345.19
2017-09-06T01:51:39.407Z,98339.69
2017-09-06T01:54:07.742Z,98342.69
2017-09-06T01:56:36.139Z,98344.72
2017-09-06T01:59:04.468Z,98337.34
2017-09-06T02:01:32.795Z,98348.04
2017-09-06T02:04:02.147Z,98347.20
2017-09-06T02:06:30.479Z,98344.91
2017-09-06T02:08:59.301Z,98338.41
2017-09-06T02:11:27.628Z,98340.95
2017-09-06T02:13:55.969Z,98339.63
2017-09-06T02:16:24.298Z,98335.20
2017-09-06T02:18:52.630Z,98334.73
2017-09-06T02:21:22.772Z,98331.73
2017-09-06T02:23:51.099Z,98334.23
2017-09-06T02:26:19.492Z,98330.88
2017-09-06T02:28:47.842Z,98334.80
2017-09-06T02:31:16.182Z,98331.42
2017-09-06T02:33:44.528Z,98331.12
2017-09-06T02:36:12.846Z,98331.83
2017-09-06T02:38:41.298Z,98323.83
2017-09-06T02:41:09.704Z,98326.80
2017-09-06T02:43:38.157Z,98328.88
2017-09-06T02:46:06.491Z,98314.29
2017-09-06T02:48:34.832Z,98307.97
2017-09-06T02:51:03.180Z,98310.00
2017-09-06T02:53:31.514Z,98309.75
2017-09-06T02:56:02.200Z,98304.73
2017-09-06T02:58:30.539Z,98297.19
2017-09-06T03:00:58.854Z,98309.10
2017-09-06T03:03:27.197Z,98303.10
2017-09-06T03:05:56.419Z,98299.95
2017-09-06T03:08:24.851Z,98299.55
2017-09-06T03:10:53.184Z,98291.72
2017-09-06T03:13:22.091Z,98289.78
2017-09-06T03:15:50.406Z,98294.77
2017-09-06T03:18:18.739Z,98290.39
2017-09-06T03:20:47.080Z,98294.16
2017-09-06T03:23:15.445Z,98291.83
2017-09-06T03:25:44.873Z,98281.84
2017-09-06T03:28:13.187Z,98278.34
2017-09-06T03:30:41.634Z,98275.38
2017-09-06T03:33:10.776Z,98271.73
2017-09-06T03:35:39.112Z,98273.25
2017-09-06T03:38:07.461Z,98272.11
2017-09-06T03:40:35.804Z,98274.17
2017-09-06T03:43:04.157Z,98278.91
2017-09-06T03:45:32.488Z,98272.76
2017-09-06T03:48:00.841Z,98270.34
2017-09-06T03:50:29.168Z,98276.25
2017-09-06T03:52:58.405Z,98274.20
2017-09-06T03:55:26.751Z,98271.72
2017-09-06T03:57:55.069Z,98274.20
2017-09-06T04:00:23.419Z,98267.11
2017-09-06T04:02:52.336Z,98266.80
2017-09-06T04:05:25.156Z,98269.31
2017-09-06T04:07:53.471Z,98270.08
2017-09-06T04:10:21.801Z,98264.49
2017-09-06T04:12:50.923Z,98262.12
2017-09-06T04:15:19.237Z,98260.29
2017-09-06T04:17:47.588Z,98264.10
2017-09-06T04:20:15.913Z,98263.66
2017-09-06T04:22:44.537Z,98264.01
2017-09-06T04:25:12.868Z,98258.81
2017-09-06T04:27:41.691Z,98256.63
2017-09-06T04:30:10.042Z,98264.16
2017-09-06T04:32:38.371Z,98262.28
2017-09-06T04:35:06.737Z,98263.04
2017-09-06T04:37:35.058Z,98265.09
2017-09-06T04:40:03.684Z,98269.70
2017-09-06T04:42:32.016Z,98273.88
2017-09-06T04:45:00.344Z,98276.53
2017-09-06T04:47:28.685Z,98276.50
2017-09-06T04:49:57.000Z,98274.58
2017-09-06T04:52:25.345Z,98281.44
2017-09-06T04:54:53.685Z,98274.23
2017-09-06T04:57:22.363Z,98270.34
2017-09-06T04:59:50.708Z,98279.85
2017-09-06T05:02:19.053Z,98277.58
2017-09-06T05:04:47.410Z,98281.69
2017-09-06T05:07:15.734Z,98277.93
2017-09-06T05:09:44.091Z,98282.71
2017-09-06T05:12:12.417Z,98276.56
2017-09-06T05:14:40.776Z,98286.87
2017-09-06T05:17:09.134Z,98290.49
2017-09-06T05:19:37.447Z,98282.34
2017-09-06T05:22:05.803Z,98287.37
2017-09-06T05:24:34.135Z,98286.09
2017-09-06T05:27:03.279Z,98293.52
2017-09-06T05:29:31.626Z,98294.03
2017-09-06T05:31:59.947Z,98296.72
2017-09-06T05:34:28.298Z,98293.12
2017-09-06T05:36:56.814Z,98293.87
2017-09-06T05:39:25.158Z,98297.22
2017-09-06T05:41:53.474Z,98300.63
2017-09-06T05:44:22.485Z,98301.95
2017-09-06T05:46:51.536Z,98301.78
2017-09-06T05:49:19.877Z,98296.84
2017-09-06T05:51:48.213Z,98303.97
2017-09-06T05:54:16.551Z,98300.30
2017-09-06T05:56:44.890Z,98309.22
2017-09-06T05:59:13.208Z,98311.62
2017-09-06T06:01:41.567Z,98323.28
2017-09-06T06:04:09.897Z,98325.16
2017-09-06T06:06:38.233Z,98321.23
2017-09-06T06:09:06.585Z,98327.09
2017-09-06T06:11:34.911Z,98325.26
2017-09-06T06:14:03.260Z,98330.28
2017-09-06T06:16:31.584Z,98329.92
2017-09-06T06:18:59.957Z,98336.55
2017-09-06T06:21:28.307Z,98333.63
2017-09-06T06:23:56.629Z,98331.63
2017-09-06T06:26:24.987Z,98335.86
2017-09-06T06:28:53.326Z,98338.64
2017-09-06T06:31:22.025Z,98337.08
2017-09-06T06:33:50.353Z,98339.62
2017-09-06T06:36:18.682Z,98342.66
2017-09-06T06:38:47.042Z,98338.98
2017-09-06T06:41:15.355Z,98344.00
2017-09-06T06:43:43.777Z,98344.75
2017-09-06T06:46:12.166Z,98345.41
2017-09-06T06:48:40.518Z,98336.88
2017-09-06T06:51:08.850Z,98339.44
2017-09-06T06:53:38.163Z,98339.81
2017-09-06T06:56:06.509Z,98341.62
2017-09-06T06:58:34.837Z,98341.89
2017-09-06T07:01:03.171Z,98340.98
2017-09-06T07:03:31.500Z,98346.94
2017-09-06T07:06:00.147Z,98348.89
2017-09-06T07:08:28.482Z,98351.31
2017-09-06T07:10:56.804Z,98350.20
2017-09-06T07:13:25.156Z,98355.02
2017-09-06T07:15:53.486Z,98350.91
2017-09-06T07:18:21.856Z,98357.02
2017-09-06T07:20:50.186Z,98361.47
2017-09-06T07:23:18.552Z,98357.66
2017-09-06T07:25:46.878Z,98362.58
2017-09-06T07:28:15.224Z,98364.66
2017-09-06T07:30:43.566Z,98362.20
2017-09-06T07:33:11.895Z,98364.94
2017-09-06T07:35:40.241Z,98367.38
2017-09-06T07:38:08.586Z,98369.88
2017-09-06T07:40:36.947Z,98364.83
2017-09-06T07:43:05.289Z,98364.91
2017-09-06T07:45:33.631Z,98371.94
2017-09-06T07:48:01.985Z,98373.86
2017-09-06T07:50:30.368Z,98366.16
2017-09-06T07:52:59.279Z,98366.48
2017-09-06T07:55:27.628Z,98369.37
2017-09-06T07:57:55.976Z,98368.23
2017-09-06T08:00:24.321Z,98364.58
2017-09-06T08:02:52.653Z,98377.78
2017-09-06T08:05:21.008Z,98377.37
2017-09-06T08:07:54.735Z,98379.80
2017-09-06T08:10:23.069Z,98383.47
2017-09-06T08:12:51.406Z,98389.82
2017-09-06T08:15:19.778Z,98385.79
2017-09-06T08:17:48.136Z,98384.45
2017-09-06T08:20:16.467Z,98378.64
2017-09-06T08:22:45.031Z,98382.72
2017-09-06T08:25:13.365Z,98391.37
2017-09-06T08:27:41.713Z,98392.45
2017-09-06T08:30:10.040Z,98395.41
2017-09-06T08:32:38.403Z,98383.80
2017-09-06T08:35:06.849Z,98394.02
2017-09-06T08:37:35.171Z,98386.07
2017-09-06T08:40:03.505Z,98399.19
2017-09-06T08:42:31.819Z,98391.63
2017-09-06T08:45:00.147Z,98392.23
2017-09-06T08:47:28.459Z,98400.34
2017-09-06T08:49:57.117Z,98397.92
2017-09-06T08:52:25.437Z,98394.28
2017-09-06T08:54:53.762Z,98395.91
2017-09-06T08:57:22.109Z,98393.05
2017-09-06T08:59:50.433Z,98390.39
2017-09-06T09:02:18.781Z,98397.34
2017-09-06T09:04:47.117Z,98394.05
2017-09-06T09:07:17.015Z,98397.09
2017-09-06T09:09:45.365Z,98401.37
2017-09-06T09:12:13.693Z,98401.08
2017-09-06T09:14:42.060Z,98391.16
2017-09-06T09:17:11.106Z,98405.47
2017-09-06T09:19:39.439Z,98404.61
2017-09-06T09:22:07.777Z,98400.97
2017-09-06T09:24:36.119Z,98399.02
2017-09-06T09:27:05.192Z,98402.23
2017-09-06T09:29:33.600Z,98396.27
2017-09-06T09:32:01.973Z,98384.56
2017-09-06T09:34:30.295Z,98395.45
2017-09-06T09:36:58.687Z,98394.59
2017-09-06T09:39:27.029Z,98391.40
2017-09-06T09:41:55.381Z,98388.86
2017-09-06T09:44:23.741Z,98402.83
2017-09-06T09:46:52.081Z,98404.38
2017-09-06T09:49:20.485Z,98403.55
2017-09-06T09:51:48.814Z,98403.55
2017-09-06T09:54:17.148Z,98412.23
2017-09-06T09:56:45.480Z,98405.95
2017-09-06T09:59:14.273Z,98406.73
2017-09-06T10:01:42.604Z,98411.31
2017-09-06T10:04:10.943Z,98410.09
2017-09-06T10:06:39.295Z,98401.37
2017-09-06T10:09:07.634Z,98403.77
2017-09-06T10:11:35.986Z,98406.02
2017-09-06T10:14:04.380Z,98399.89
2017-09-06T10:16:32.748Z,98407.72
2017-09-06T10:19:01.084Z,98403.95
2017-09-06T10:21:29.434Z,98406.75
2017-09-06T10:23:57.772Z,98415.02
2017-09-06T10:26:26.884Z,98416.41
2017-09-06T10:28:55.239Z,98419.66
2017-09-06T10:31:23.554Z,98417.03
2017-09-06T10:33:52.216Z,98431.51
2017-09-06T10:36:20.562Z,98425.17
2017-09-06T10:38:48.885Z,98422.43
2017-09-06T10:41:17.237Z,98420.41
2017-09-06T10:43:45.552Z,98435.23
2017-09-06T10:46:13.894Z,98437.89
2017-09-06T10:48:42.220Z,98443.78
2017-09-06T10:51:10.675Z,98441.13
2017-09-06T10:53:39.004Z,98442.16
2017-09-06T10:56:07.343Z,98463.38
2017-09-06T10:58:35.687Z,98437.39
2017-09-06T11:01:04.016Z,98433.66
2017-09-06T11:03:32.364Z,98419.06
2017-09-06T11:06:00.695Z,98427.36
2017-09-06T11:08:29.484Z,98431.94
2017-09-06T11:10:57.822Z,98440.92
2017-09-06T11:13:26.153Z,98434.77
2017-09-06T11:15:54.523Z,98448.05
2017-09-06T11:18:22.906Z,98440.70
2017-09-06T11:20:51.256Z,98435.30
2017-09-06T11:23:19.567Z,98441.11
2017-09-06T11:25:48.381Z,98467.92
2017-09-06T11:28:16.714Z,98458.19
2017-09-06T11:30:45.045Z,98461.75
2017-09-06T11:33:14.068Z,98441.28
2017-09-06T11:35:42.397Z,98442.46
2017-09-06T11:38:10.736Z,98431.59
2017-09-06T11:40:39.058Z,98434.68
2017-09-06T11:43:07.767Z,98437.02
2017-09-06T11:45:36.115Z,98443.81
2017-09-06T11:48:04.434Z,98446.37
2017-09-06T11:50:32.758Z,98444.81
2017-09-06T11:53:01.098Z,98461.03
2017-09-06T11:55:29.473Z,98455.16
2017-09-06T11:57:57.795Z,98452.73
2017-09-06T12:00:26.528Z,98446.22
2017-09-06T12:02:54.853Z,98443.39
2017-09-06T12:05:23.174Z,98439.72
2017-09-06T12:07:51.511Z,98440.96
2017-09-06T12:10:19.852Z,98444.32
2017-09-06T12:12:48.271Z,98442.59
2017-09-06T12:15:16.662Z,98467.31
2017-09-06T12:17:45.365Z,98461.33
2017-09-06T12:20:13.696Z,98460.97
2017-09-06T12:22:42.038Z,98469.73
2017-09-06T12:25:10.407Z,98476.64
2017-09-06T12:27:38.746Z,98480.49
2017-09-06T12:30:07.107Z,98471.63
2017-09-06T12:32:35.428Z,98473.55
2017-09-06T12:35:03.789Z,98491.92
2017-09-06T12:37:32.215Z,98482.14
2017-09-06T12:40:00.557Z,98482.47
2017-09-06T12:42:28.911Z,98487.73
2017-09-06T12:44:57.264Z,98492.77
2017-09-06T12:47:25.603Z,98486.05
2017-09-06T12:49:53.933Z,98484.88
2017-09-06T12:52:22.294Z,98499.17
2017-09-06T12:54:50.655Z,98493.54
2017-09-06T12:57:18.999Z,98493.41
2017-09-06T12:59:47.344Z,98492.92
2017-09-06T13:02:15.685Z,98482.46
2017-09-06T13:04:44.048Z,98486.03
2017-09-06T13:07:12.419Z,98484.61
2017-09-06T13:09:40.747Z,98491.28
2017-09-06T13:12:09.153Z,98492.50
2017-09-06T13:14:37.474Z,98497.93
2017-09-06T13:17:05.823Z,98492.14
2017-09-06T13:19:34.146Z,98501.14
2017-09-06T13:22:02.542Z,98498.77
2017-09-06T13:24:30.872Z,98497.73
2017-09-06T13:26:59.195Z,98501.02
2017-09-06T13:29:27.550Z,98510.45
2017-09-06T13:31:56.619Z,98498.63
2017-09-06T13:34:24.979Z,98504.85
2017-09-06T13:36:53.307Z,98505.66
2017-09-06T13:39:21.675Z,98501.39
2017-09-06T13:41:50.026Z,98501.39
2017-09-06T13:44:18.351Z,98504.94
2017-09-06T13:46:46.700Z,98503.55
2017-09-06T13:49:15.031Z,98507.02
2017-09-06T13:51:43.395Z,98502.06
2017-09-06T13:54:11.848Z,98501.02
2017-09-06T13:56:40.218Z,98503.11
2017-09-06T13:59:08.556Z,98504.70
2017-09-06T14:01:36.880Z,98496.02
2017-09-06T14:04:05.241Z,98506.23
2017-09-06T14:06:33.569Z,98512.23
2017-09-06T14:09:01.934Z,98515.95
2017-09-06T14:11:30.829Z,98503.69
2017-09-06T14:13:59.383Z,98503.00
2017-09-06T14:16:27.758Z,98504.35
2017-09-06T14:18:56.096Z,98504.04
2017-09-06T14:21:24.491Z,98501.14
2017-09-06T14:23:52.967Z,98496.78
2017-09-06T14:26:21.318Z,98483.17
2017-09-06T14:28:49.658Z,98477.09
2017-09-06T14:31:18.003Z,98474.69
2017-09-06T14:33:46.357Z,98474.06
2017-09-06T14:36:14.705Z,98484.48
2017-09-06T14:38:43.068Z,98477.61
2017-09-06T14:41:11.400Z,98474.28
2017-09-06T14:43:39.733Z,98475.55
2017-09-06T14:46:10.341Z,98478.79
2017-09-06T14:48:38.789Z,98473.03
2017-09-06T14:51:07.138Z,98480.02
2017-09-06T14:53:35.939Z,98479.20
2017-09-06T14:56:05.085Z,98477.43
2017-09-06T14:58:33.414Z,98477.33
2017-09-06T15:01:01.749Z,98482.09
2017-09-06T15:03:30.107Z,98474.42
2017-09-06T15:05:58.457Z,98473.23
2017-09-06T15:08:26.819Z,98465.38
2017-09-06T15:10:56.082Z,98465.19
2017-09-06T15:13:24.509Z,98464.35
2017-09-06T15:15:52.986Z,98460.27
2017-09-06T15:18:21.316Z,98460.37
2017-09-06T15:20:49.658Z,98462.58
2017-09-06T15:23:18.094Z,98460.08
2017-09-06T15:25:46.491Z,98463.69
2017-09-06T15:28:14.807Z,98462.66
2017-09-06T15:30:43.343Z,98457.42
2017-09-06T15:33:11.741Z,98454.36
2017-09-06T15:35:40.094Z,98454.17
2017-09-06T15:38:08.431Z,98463.80
2017-09-06T15:40:36.849Z,98461.33
2017-09-06T15:43:05.505Z,98466.48
2017-09-06T15:45:33.857Z,98463.27
2017-09-06T15:48:02.190Z,98464.07
2017-09-06T15:50:33.294Z,98466.64
2017-09-06T15:53:01.650Z,98469.42
2017-09-06T15:55:31.027Z,98472.03
2017-09-06T15:57:59.363Z,98476.69
2017-09-06T16:00:27.744Z,98475.14
2017-09-06T16:02:57.077Z,98475.31
2017-09-06T16:05:25.442Z,98476.94
2017-09-06T16:07:53.803Z,98472.73
2017-09-06T16:10:22.174Z,98474.80
2017-09-06T16:12:51.418Z,98479.47
2017-09-06T16:15:19.764Z,98481.94
2017-09-06T16:17:48.521Z,98487.14
2017-09-06T16:20:16.868Z,98484.99
2017-09-06T16:22:45.206Z,98487.86
2017-09-06T16:25:13.554Z,98492.23
2017-09-06T16:27:41.873Z,98490.55
2017-09-06T16:30:10.273Z,98490.95
2017-09-06T16:32:38.633Z,98496.46
2017-09-06T16:35:06.993Z,98492.55
2017-09-06T16:37:35.401Z,98498.41
2017-09-06T16:40:03.806Z,98500.09
2017-09-06T16:42:32.178Z,98505.70
2017-09-06T16:45:00.509Z,98510.94
2017-09-06T16:47:28.866Z,98516.06
2017-09-06T16:49:57.197Z,98522.46
2017-09-06T16:52:26.053Z,98512.75
2017-09-06T16:54:54.397Z,98506.56
2017-09-06T16:57:22.732Z,98511.60
2017-09-06T16:59:51.089Z,98507.95
2017-09-06T17:02:19.405Z,98507.19
2017-09-06T17:04:48.130Z,98505.75
2017-09-06T17:07:16.477Z,98507.93
2017-09-06T17:09:45.287Z,98509.06
2017-09-06T17:12:13.626Z,98510.13
2017-09-06T17:14:41.956Z,98508.14
2017-09-06T17:17:10.357Z,98506.27
2017-09-06T17:19:38.702Z,98510.45
2017-09-06T17:22:07.042Z,98512.79
2017-09-06T17:24:35.389Z,98509.47
2017-09-06T17:27:04.554Z,98514.97
2017-09-06T17:29:32.880Z,98511.80
2017-09-06T17:32:01.225Z,98520.14
2017-09-06T17:34:29.590Z,98512.75
2017-09-06T17:36:59.217Z,98515.03
2017-09-06T17:39:27.575Z,98512.49
2017-09-06T17:41:56.085Z,98513.85
2017-09-06T17:44:24.446Z,98517.28
2017-09-06T17:46:52.830Z,98513.02
2017-09-06T17:49:21.152Z,98515.72
2017-09-06T17:51:50.464Z,98518.61
2017-09-06T17:54:19.084Z,98522.41
2017-09-06T17:56:47.713Z,98530.96
2017-09-06T17:59:16.048Z,98535.57
2017-09-06T18:01:44.395Z,98548.03
2017-09-06T18:04:12.777Z,98552.36
2017-09-06T18:06:41.129Z,98546.66
2017-09-06T18:09:09.506Z,98544.50
2017-09-06T18:11:37.866Z,98544.63
2017-09-06T18:14:06.242Z,98542.18
2017-09-06T18:16:34.669Z,98542.36
2017-09-06T18:19:03.001Z,98549.19
2017-09-06T18:21:31.362Z,98543.13
2017-09-06T18:23:59.703Z,98547.59
2017-09-06T18:26:28.073Z,98555.17
2017-09-06T18:28:56.436Z,98557.71
2017-09-06T18:31:24.795Z,98561.98
2017-09-06T18:33:53.577Z,98567.81
2017-09-06T18:36:24.324Z,98568.48
2017-09-06T18:38:52.649Z,98564.42
2017-09-06T18:41:21.026Z,98567.66
2017-09-06T18:43:50.497Z,98572.56
2017-09-06T18:46:18.820Z,98574.08
2017-09-06T18:48:47.177Z,98577.42
2017-09-06T18:51:15.548Z,98577.53
2017-09-06T18:53:43.859Z,98579.56
2017-09-06T18:56:12.635Z,98571.09
2017-09-06T18:58:40.996Z,98573.70
2017-09-06T19:01:09.360Z,98581.59
2017-09-06T19:03:37.688Z,98585.48
2017-09-06T19:06:06.551Z,98580.23
2017-09-06T19:08:34.902Z,98585.81
2017-09-06T19:11:03.243Z,98589.66
2017-09-06T19:13:31.600Z,98588.83
2017-09-06T19:15:59.943Z,98591.39
2017-09-06T19:18:29.335Z,98591.30
2017-09-06T19:20:57.676Z,98597.69
2017-09-06T19:23:26.020Z,98597.69
2017-09-06T19:25:54.438Z,98596.70
2017-09-06T19:28:22.781Z,98604.12
2017-09-06T19:30:51.920Z,98600.95
2017-09-06T19:33:20.764Z,98600.17
2017-09-06T19:35:49.099Z,98599.56
2017-09-06T19:38:17.825Z,98599.36
2017-09-06T19:40:46.180Z,98598.96
2017-09-06T19:43:14.606Z,98603.64
2017-09-06T19:45:43.040Z,98603.33
2017-09-06T19:48:11.387Z,98605.87
2017-09-06T19:50:39.725Z,98603.23
2017-09-06T19:53:08.085Z,98604.46
2017-09-06T19:55:36.429Z,98602.62
2017-09-06T19:58:05.725Z,98598.27
2017-09-06T20:00:34.086Z,98594.51
2017-09-06T20:03:02.862Z,98597.23
2017-09-06T20:05:31.251Z,98587.42
2017-09-06T20:07:59.593Z,98593.48
2017-09-06T20:10:27.972Z,98592.07
2017-09-06T20:12:56.301Z,98590.47
2017-09-06T20:15:24.647Z,98592.89
2017-09-06T20:17:53.011Z,98595.44
2017-09-06T20:20:21.358Z,98587.72
2017-09-06T20:22:49.696Z,98590.45
2017-09-06T20:25:18.026Z,98591.78
2017-09-06T20:27:46.347Z,98589.66
2017-09-06T20:30:14.699Z,98580.44
2017-09-06T20:32:43.035Z,98582.95
2017-09-06T20:35:11.420Z,98586.62
2017-09-06T20:37:39.744Z,98587.31
2017-09-06T20:40:08.346Z,98585.90
2017-09-06T20:42:36.683Z,98588.63
2017-09-06T20:45:05.028Z,98587.99
2017-09-06T20:47:33.369Z,98590.63
2017-09-06T20:50:01.708Z,98594.48
2017-09-06T20:52:30.079Z,98586.40
2017-09-06T20:54:58.411Z,98590.52
2017-09-06T20:57:27.017Z,98588.78
2017-09-06T20:59:55.331Z,98583.70
2017-09-06T21:02:23.641Z,98589.03
2017-09-06T21:04:52.004Z,98589.84
2017-09-06T21:07:20.335Z,98587.52
2017-09-06T21:09:48.704Z,98584.77
2017-09-06T21:12:17.068Z,98581.27
2017-09-06T21:14:45.436Z,98587.45
2017-09-06T21:17:13.781Z,98582.16
2017-09-06T21:19:42.123Z,98588.42
2017-09-06T21:22:10.488Z,98590.03
2017-09-06T21:24:38.822Z,98588.30
2017-09-06T21:27:07.165Z,98581.20
2017-09-06T21:29:35.503Z,98588.61
2017-09-06T21:32:03.868Z,98588.08
2017-09-06T21:34:32.230Z,98588.26
2017-09-06T21:37:00.563Z,98589.20
2017-09-06T21:39:28.912Z,98586.70
2017-09-06T21:41:57.255Z,98593.82
2017-09-06T21:44:25.608Z,98597.21
2017-09-06T21:46:53.934Z,98597.47
2017-09-06T21:49:22.541Z,98600.30
2017-09-06T21:51:50.893Z,98602.63
2017-09-06T21:54:19.222Z,98596.48
2017-09-06T21:56:47.578Z,98595.29
2017-09-06T21:59:15.934Z,98596.80
2017-09-06T22:01:44.276Z,98595.49
2017-09-06T22:04:12.608Z,98595.42
2017-09-06T22:06:40.954Z,98593.62
2017-09-06T22:09:09.300Z,98597.48
2017-09-06T22:11:37.631Z,98600.05
2017-09-06T22:14:06.009Z,98598.45
2017-09-06T22:16:34.361Z,98603.92
2017-09-06T22:19:02.712Z,98603.73
2017-09-06T22:21:31.041Z,98601.29
2017-09-06T22:23:59.390Z,98607.01
2017-09-06T22:26:27.738Z,98613.55
2017-09-06T22:28:56.081Z,98605.51
2017-09-06T22:31:24.446Z,98605.30
2017-09-06T22:33:52.772Z,98606.83
2017-09-06T22:36:21.131Z,98612.32
2017-09-06T22:38:49.441Z,98614.55
2017-09-06T22:41:18.693Z,98614.23
2017-09-06T22:43:47.025Z,98617.12
2017-09-06T22:46:15.379Z,98617.53
2017-09-06T22:48:44.066Z,98614.86
2017-09-06T22:51:12.471Z,98620.57
2017-09-06T22:53:40.834Z,98622.24
2017-09-06T22:56:09.195Z,98611.72
2017-09-06T22:58:37.521Z,98610.16
2017-09-06T23:01:05.855Z,98613.41
2017-09-06T23:03:34.176Z,98614.55
2017-09-06T23:06:02.511Z,98610.24
2017-09-06T23:08:30.836Z,98599.22
2017-09-06T23:10:59.451Z,98606.44
2017-09-06T23:13:27.787Z,98603.30
2017-09-06T23:15:56.116Z,98600.36
2017-09-06T23:18:24.453Z,98599.52
2017-09-06T23:20:52.782Z,98602.13
2017-09-06T23:23:21.128Z,98599.04
2017-09-06T23:25:49.466Z,98593.86
2017-09-06T23:28:17.822Z,98586.57
2017-09-06T23:30:46.163Z,98593.29
2017-09-06T23:33:14.530Z,98584.77
2017-09-06T23:35:42.918Z,98585.20
2017-09-06T23:38:11.830Z,98582.58
2017-09-06T23:40:40.724Z,98576.51
2017-09-06T23:43:09.534Z,98569.05
2017-09-06T23:45:38.469Z,98571.98
2017-09-06T23:48:07.463Z,98569.84
2017-09-06T23:50:36.706Z,98574.64
2017-09-06T23:53:05.614Z,98569.27
2017-09-06T23:55:33.940Z,98572.02
2017-09-06T23:58:02.302Z,98568.87
